Weather & Traffic



KLGB 080553Z 19003KT 10SM CLR 20/16 A2992 RMK AO2 SLP129 T02000161 10250 20200 51014


TAF KLGB 080533Z 0806/0906 29008KT P6SM SCT015 FM081000 VRB03KT P6SM SCT015 OVC025 FM081400 VRB03KT 6SM -DZ BR BKN015 OVC025 FM081700 18006KT P6SM SCT015 BKN030 FM081900 19008KT P6SM SCT035 FM090000 30008KT P6SM SKC FM090500 VRB03KT P6SM SKC